Time,TemperatureF,DewpointF,PressureIn,WindDirection,WindDirectionDegrees,WindSpeedMPH,WindSpeedGustMPH,Humidity,HourlyPrecipIn,Conditions,Clouds,dailyrainin,SolarRadiationWatts/m^2,SoftwareType,DateUTC
2013-07-20 00:02:00,70.0,68.0,29.93,WNW,299,0.0,3.0,94,0.00,,,0.00,0.000000,,2013-07-20 04:02:00,
2013-07-20 00:22:00,70.0,68.0,29.92,West,272,0.0,3.0,94,0.00,,,0.00,0.000000,,2013-07-20 04:22:00,
2013-07-20 00:33:00,70.0,68.0,29.91,WNW,287,0.0,3.0,94,0.00,,,0.00,0.000000,,2013-07-20 04:33:00,
2013-07-20 00:44:00,70.0,68.0,29.91,WNW,290,0.0,2.0,95,0.00,,,0.00,0.000000,,2013-07-20 04:44:00,
2013-07-20 01:02:00,70.0,68.0,29.90,West,269,0.0,4.0,95,0.00,,,0.00,0.000000,,2013-07-20 05:02:00,
2013-07-20 01:12:00,70.0,68.0,29.90,West,265,0.0,4.0,95,0.00,,,0.00,0.000000,,2013-07-20 05:12:00,
2013-07-20 01:32:00,69.0,68.0,29.90,West,277,0.0,4.0,95,0.00,,,0.00,0.000000,,2013-07-20 05:32:00,
2013-07-20 01:52:00,69.0,68.0,29.90,West,277,0.0,3.0,95,0.00,,,0.00,0.000000,,2013-07-20 05:52:00,
2013-07-20 02:01:00,69.0,68.0,29.90,West,277,0.0,0.0,96,0.00,,,0.00,0.000000,,2013-07-20 06:01:00,
2013-07-20 02:32:00,69.0,68.0,29.91,West,277,0.0,1.0,96,0.00,,,0.00,0.000000,,2013-07-20 06:32:00,
2013-07-20 02:43:00,69.0,68.0,29.91,West,277,0.0,2.0,96,0.00,,,0.00,0.000000,,2013-07-20 06:43:00,
2013-07-20 02:52:00,69.0,68.0,29.91,West,277,0.0,1.0,97,0.00,,,0.00,0.000000,,2013-07-20 06:52:00,
2013-07-20 03:01:00,69.0,68.0,29.91,West,277,0.0,1.0,97,0.00,,,0.00,0.000000,,2013-07-20 07:01:00,
2013-07-20 03:12:00,69.0,68.0,29.92,West,277,0.0,1.0,97,0.00,,,0.00,0.000000,,2013-07-20 07:12:00,
2013-07-20 03:22:00,69.0,68.0,29.92,West,277,0.0,1.0,97,0.00,,,0.00,0.000000,,2013-07-20 07:22:00,
2013-07-20 03:33:00,69.0,68.0,29.92,West,277,0.0,1.0,97,0.00,,,0.00,0.000000,,2013-07-20 07:33:00,
2013-07-20 03:44:00,69.0,68.0,29.91,West,277,0.0,1.0,97,0.00,,,0.00,0.000000,,2013-07-20 07:44:00,
2013-07-20 03:53:00,68.0,67.0,29.91,West,277,0.0,1.0,97,0.00,,,0.00,0.000000,,2013-07-20 07:53:00,
2013-07-20 04:02:00,68.0,67.0,29.91,West,277,0.0,1.0,97,0.00,,,0.00,0.000000,,2013-07-20 08:02:00,
2013-07-20 04:11:00,68.0,67.0,29.91,West,277,0.0,0.0,97,0.00,,,0.00,0.000000,,2013-07-20 08:11:00,
2013-07-20 04:22:00,68.0,67.0,29.90,West,277,0.0,0.0,97,0.00,,,0.00,0.000000,,2013-07-20 08:22:00,
2013-07-20 04:32:00,68.0,67.0,29.90,West,277,0.0,0.0,97,0.00,,,0.00,0.000000,,2013-07-20 08:32:00,
2013-07-20 04:44:00,68.0,67.0,29.90,West,277,0.0,1.0,97,0.00,,,0.00,0.000000,,2013-07-20 08:44:00,
2013-07-20 04:52:00,68.0,67.0,29.90,West,277,0.0,2.0,97,0.00,,,0.00,0.000000,,2013-07-20 08:52:00,
2013-07-20 05:02:00,68.0,67.0,29.90,West,277,0.0,2.0,97,0.00,,,0.00,0.000000,,2013-07-20 09:02:00,
2013-07-20 05:11:00,68.0,67.0,29.89,West,277,0.0,2.0,97,0.00,,,0.00,0.000000,,2013-07-20 09:11:00,
2013-07-20 05:22:00,68.0,67.0,29.89,West,277,0.0,2.0,97,0.00,,,0.00,0.000000,,2013-07-20 09:22:00,
2013-07-20 05:33:00,68.0,67.0,29.89,West,277,0.0,0.0,97,0.00,,,0.00,0.000000,,2013-07-20 09:33:00,
2013-07-20 05:43:00,68.0,67.0,29.90,West,277,0.0,1.0,97,0.00,,,0.00,0.000000,,2013-07-20 09:43:00,
2013-07-20 05:53:00,68.0,67.0,29.90,West,277,0.0,1.0,97,0.00,,,0.00,0.000000,,2013-07-20 09:53:00,
2013-07-20 06:01:00,67.0,66.0,29.90,West,277,0.0,1.0,98,0.00,,,0.00,0.000000,,2013-07-20 10:01:00,
2013-07-20 06:11:00,68.0,67.0,29.91,West,277,0.0,3.0,98,0.00,,,0.00,0.000000,,2013-07-20 10:11:00,
2013-07-20 06:22:00,68.0,67.0,29.91,West,277,0.0,3.0,98,0.00,,,0.00,0.000000,,2013-07-20 10:22:00,
2013-07-20 06:32:00,68.0,67.0,29.91,WNW,284,2.0,6.0,98,0.00,,,0.00,0.000000,,2013-07-20 10:32:00,
2013-07-20 06:42:00,68.0,67.0,29.91,WSW,257,0.0,5.0,98,0.00,,,0.00,0.000000,,2013-07-20 10:42:00,
2013-07-20 06:52:00,68.0,67.0,29.92,West,272,0.0,4.0,98,0.00,,,0.00,9.000000,,2013-07-20 10:52:00,
2013-07-20 07:02:00,68.0,67.0,29.92,West,272,0.0,4.0,98,0.00,,,0.00,9.000000,,2013-07-20 11:02:00,
2013-07-20 07:11:00,67.0,66.0,29.92,West,272,0.0,1.0,98,0.00,,,0.00,21.000000,,2013-07-20 11:11:00,
2013-07-20 07:22:00,67.0,66.0,29.92,West,272,0.0,1.0,98,0.00,,,0.00,21.000000,,2013-07-20 11:22:00,
2013-07-20 07:32:00,67.0,66.0,29.92,West,272,0.0,2.0,98,0.00,,,0.00,35.000000,,2013-07-20 11:32:00,
2013-07-20 07:43:00,68.0,67.0,29.93,West,272,0.0,2.0,98,0.00,,,0.00,51.000000,,2013-07-20 11:43:00,
2013-07-20 07:52:00,68.0,67.0,29.93,West,272,0.0,2.0,98,0.00,,,0.00,51.000000,,2013-07-20 11:52:00,
2013-07-20 08:01:00,68.0,67.0,29.92,West,275,1.0,3.0,98,0.00,,,0.00,63.000000,,2013-07-20 12:01:00,
2013-07-20 08:22:00,68.0,67.0,29.93,WNW,290,2.0,4.0,98,0.00,,,0.00,123.000000,,2013-07-20 12:22:00,
2013-07-20 08:32:00,68.0,68.0,29.93,WSW,253,1.0,8.0,99,0.00,,,0.00,216.000000,,2013-07-20 12:32:00,
2013-07-20 08:52:00,69.0,68.0,29.93,West,275,2.0,5.0,98,0.00,,,0.00,257.000000,,2013-07-20 12:52:00,
2013-07-20 09:43:00,72.0,70.0,29.93,WNW,302,1.0,6.0,93,0.00,,,0.00,457.000000,,2013-07-20 13:43:00,
2013-07-20 09:53:00,72.0,70.0,29.93,WNW,302,1.0,6.0,93,0.00,,,0.00,457.000000,,2013-07-20 13:53:00,
2013-07-20 10:02:00,73.0,70.0,29.93,WNW,289,1.0,6.0,89,0.00,,,0.00,496.000000,,2013-07-20 14:02:00,
2013-07-20 10:11:00,75.0,71.0,29.92,West,271,1.0,6.0,87,0.00,,,0.00,534.000000,,2013-07-20 14:11:00,
2013-07-20 10:32:00,76.0,71.0,29.93,SW,228,3.0,6.0,84,0.00,,,0.00,381.000000,,2013-07-20 14:32:00,
2013-07-20 10:43:00,76.0,70.0,29.93,NW,317,4.0,8.0,83,0.00,,,0.00,719.000000,,2013-07-20 14:43:00,
2013-07-20 10:53:00,77.0,71.0,29.93,West,275,3.0,9.0,81,0.00,,,0.00,345.000000,,2013-07-20 14:53:00,
2013-07-20 11:01:00,77.0,71.0,29.93,West,275,3.0,9.0,81,0.00,,,0.00,345.000000,,2013-07-20 15:01:00,
2013-07-20 11:11:00,78.0,71.0,29.93,West,275,5.0,9.0,80,0.00,,,0.00,545.000000,,2013-07-20 15:11:00,
2013-07-20 11:33:00,79.0,72.0,29.93,West,269,4.0,6.0,79,0.00,,,0.00,708.000000,,2013-07-20 15:33:00,
2013-07-20 11:44:00,80.0,72.0,29.93,WNW,292,4.0,7.0,77,0.00,,,0.00,752.000000,,2013-07-20 15:44:00,
2013-07-20 11:53:00,80.0,72.0,29.93,West,263,7.0,11.0,76,0.00,,,0.00,417.000000,,2013-07-20 15:53:00,
2013-07-20 12:01:00,80.0,72.0,29.93,West,263,7.0,11.0,76,0.00,,,0.00,417.000000,,2013-07-20 16:01:00,
2013-07-20 12:11:00,80.0,72.0,29.93,West,277,5.0,11.0,76,0.00,,,0.00,483.000000,,2013-07-20 16:11:00,
2013-07-20 12:22:00,80.0,70.0,29.92,WSW,258,5.0,11.0,71,0.00,,,0.00,548.000000,,2013-07-20 16:22:00,
2013-07-20 12:32:00,80.0,70.0,29.92,WSW,258,5.0,11.0,71,0.00,,,0.00,548.000000,,2013-07-20 16:32:00,
2013-07-20 12:43:00,81.0,71.0,29.91,West,272,6.0,10.0,71,0.00,,,0.00,744.000000,,2013-07-20 16:43:00,
2013-07-20 12:52:00,82.0,72.0,29.90,NW,313,2.0,8.0,71,0.00,,,0.00,949.000000,,2013-07-20 16:52:00,
2013-07-20 13:02:00,82.0,72.0,29.90,NW,313,2.0,8.0,71,0.00,,,0.00,949.000000,,2013-07-20 17:02:00,
2013-07-20 13:11:00,82.0,70.0,29.89,West,275,6.0,12.0,68,0.00,,,0.00,898.000000,,2013-07-20 17:11:00,
2013-07-20 13:22:00,83.0,71.0,29.89,NW,309,4.0,10.0,67,0.00,,,0.00,309.000000,,2013-07-20 17:22:00,
2013-07-20 13:32:00,83.0,71.0,29.89,NW,309,4.0,10.0,67,0.00,,,0.00,309.000000,,2013-07-20 17:32:00,
2013-07-20 13:43:00,82.0,70.0,29.88,NW,317,4.0,10.0,68,0.00,,,0.00,918.000000,,2013-07-20 17:43:00,
2013-07-20 13:53:00,84.0,70.0,29.88,WNW,295,3.0,8.0,63,0.00,,,0.00,896.000000,,2013-07-20 17:53:00,
2013-07-20 14:01:00,84.0,70.0,29.88,WNW,295,3.0,8.0,63,0.00,,,0.00,896.000000,,2013-07-20 18:01:00,
2013-07-20 14:12:00,84.0,70.0,29.88,West,275,2.0,9.0,64,0.00,,,0.00,942.000000,,2013-07-20 18:12:00,
2013-07-20 14:24:00,84.0,68.0,29.87,WNW,296,6.0,12.0,58,0.00,,,0.00,932.000000,,2013-07-20 18:24:00,
2013-07-20 14:36:00,84.0,68.0,29.87,WNW,296,6.0,12.0,58,0.00,,,0.00,932.000000,,2013-07-20 18:36:00,
2013-07-20 14:46:00,85.0,70.0,29.86,WNW,296,3.0,9.0,60,0.00,,,0.00,926.000000,,2013-07-20 18:46:00,
2013-07-20 15:26:00,85.0,69.0,29.85,West,278,4.0,12.0,59,0.00,,,0.00,225.000000,,2013-07-20 19:26:00,
2013-07-20 15:35:00,85.0,69.0,29.85,West,278,4.0,12.0,59,0.00,,,0.00,225.000000,,2013-07-20 19:35:00,
2013-07-20 15:44:00,85.0,70.0,29.84,NW,314,4.0,9.0,61,0.00,,,0.00,397.000000,,2013-07-20 19:44:00,
2013-07-20 15:54:00,84.0,70.0,29.84,NNE,15,3.0,7.0,63,0.00,,,0.00,714.000000,,2013-07-20 19:54:00,
2013-07-20 16:06:00,84.0,70.0,29.84,NNE,15,3.0,7.0,63,0.00,,,0.00,714.000000,,2013-07-20 20:06:00,
2013-07-20 16:24:00,85.0,70.0,29.83,SSW,211,2.0,7.0,62,0.00,,,0.00,789.000000,,2013-07-20 20:24:00,
2013-07-20 16:34:00,85.0,70.0,29.83,SSW,211,2.0,7.0,62,0.00,,,0.00,789.000000,,2013-07-20 20:34:00,
2013-07-20 16:45:00,85.0,70.0,29.83,South,183,2.0,9.0,61,0.00,,,0.00,805.000000,,2013-07-20 20:45:00,
2013-07-20 16:56:00,85.0,70.0,29.83,West,281,4.0,8.0,60,0.00,,,0.00,823.000000,,2013-07-20 20:56:00,
2013-07-20 17:06:00,85.0,70.0,29.83,West,281,4.0,8.0,60,0.00,,,0.00,823.000000,,2013-07-20 21:06:00,
2013-07-20 17:15:00,85.0,71.0,29.82,WNW,284,6.0,9.0,63,0.00,,,0.00,654.000000,,2013-07-20 21:15:00,
2013-07-20 17:35:00,85.0,71.0,29.83,West,278,2.0,9.0,64,0.00,,,0.00,176.000000,,2013-07-20 21:35:00,
2013-07-20 17:45:00,84.0,70.0,29.83,West,281,5.0,8.0,64,0.00,,,0.00,120.000000,,2013-07-20 21:45:00,
2013-07-20 17:55:00,82.0,71.0,29.83,West,275,6.0,15.0,69,0.00,,,0.00,93.000000,,2013-07-20 21:55:00,
2013-07-20 18:07:00,82.0,71.0,29.83,West,275,6.0,15.0,69,0.00,,,0.00,93.000000,,2013-07-20 22:07:00,
2013-07-20 18:17:00,78.0,70.0,29.83,West,267,4.0,12.0,76,0.00,,,0.00,84.000000,,2013-07-20 22:17:00,
2013-07-20 18:26:00,76.0,69.0,29.84,WNW,284,7.0,15.0,80,0.00,,,0.00,160.000000,,2013-07-20 22:26:00,
2013-07-20 18:47:00,75.0,70.0,29.83,WSW,245,1.0,7.0,84,0.00,,,0.00,218.000000,,2013-07-20 22:47:00,
2013-07-20 18:55:00,75.0,70.0,29.83,SSW,195,2.0,6.0,84,0.00,,,0.00,199.000000,,2013-07-20 22:55:00,
2013-07-20 19:05:00,75.0,70.0,29.83,SSW,195,2.0,6.0,84,0.00,,,0.00,199.000000,,2013-07-20 23:05:00,
2013-07-20 19:17:00,75.0,69.0,29.84,SW,230,0.0,4.0,83,0.00,,,0.00,128.000000,,2013-07-20 23:17:00,
2013-07-20 19:28:00,76.0,70.0,29.84,West,276,1.0,6.0,81,0.00,,,0.00,104.000000,,2013-07-20 23:28:00,
2013-07-20 19:37:00,76.0,70.0,29.84,West,276,1.0,6.0,81,0.00,,,0.00,104.000000,,2013-07-20 23:37:00,
2013-07-20 19:44:00,76.0,69.0,29.84,West,271,3.0,7.0,79,0.00,,,0.00,139.000000,,2013-07-20 23:44:00,
2013-07-20 19:55:00,76.0,68.0,29.85,WNW,295,2.0,6.0,77,0.00,,,0.00,63.000000,,2013-07-20 23:55:00,
2013-07-20 20:07:00,76.0,68.0,29.85,WNW,295,2.0,6.0,77,0.00,,,0.00,63.000000,,2013-07-21 00:07:00,
2013-07-20 20:18:00,76.0,70.0,29.86,WNW,300,1.0,4.0,81,0.00,,,0.00,47.000000,,2013-07-21 00:18:00,
2013-07-20 20:24:00,75.0,69.0,29.86,West,276,0.0,4.0,81,0.00,,,0.00,39.000000,,2013-07-21 00:24:00,
2013-07-20 20:45:00,75.0,69.0,29.87,NW,309,0.0,2.0,81,0.00,,,0.00,18.000000,,2013-07-21 00:45:00,
2013-07-20 20:55:00,75.0,69.0,29.87,West,272,0.0,3.0,81,0.00,,,0.00,0.000000,,2013-07-21 00:55:00,
2013-07-20 21:06:00,75.0,69.0,29.87,West,272,0.0,3.0,81,0.00,,,0.00,0.000000,,2013-07-21 01:06:00,
2013-07-20 21:12:00,74.0,68.0,29.86,WNW,284,1.0,4.0,82,0.00,,,0.00,0.000000,,2013-07-21 01:12:00,
2013-07-20 21:27:00,74.0,69.0,29.87,WSW,257,0.0,2.0,84,0.00,,,0.00,0.000000,,2013-07-21 01:27:00,
2013-07-20 21:36:00,74.0,69.0,29.87,WSW,257,0.0,2.0,84,0.00,,,0.00,0.000000,,2013-07-21 01:36:00,
2013-07-20 21:47:00,-999.0,-99.9,29.87,WSW,257,0.0,3.0,-999,-99.99,,,-99.99,,,2013-07-21 01:47:00,
2013-07-20 21:56:00,73.0,68.0,29.88,WSW,257,0.0,2.0,85,0.00,,,0.00,0.000000,,2013-07-21 01:56:00,
2013-07-20 22:06:00,73.0,68.0,29.88,WSW,257,0.0,2.0,85,0.00,,,0.00,0.000000,,2013-07-21 02:06:00,
2013-07-20 22:27:00,72.0,68.0,29.89,NW,304,1.0,3.0,87,0.00,,,0.00,0.000000,,2013-07-21 02:27:00,
2013-07-20 22:36:00,72.0,68.0,29.89,NW,304,1.0,3.0,87,0.00,,,0.00,0.000000,,2013-07-21 02:36:00,
2013-07-20 22:44:00,72.0,68.0,29.89,NE,51,0.0,2.0,88,0.00,,,0.00,0.000000,,2013-07-21 02:44:00,
2013-07-20 22:54:00,71.0,68.0,29.89,NE,51,0.0,1.0,90,0.00,,,0.00,0.000000,,2013-07-21 02:54:00,
2013-07-20 23:05:00,71.0,68.0,29.89,NE,51,0.0,1.0,90,0.00,,,0.00,0.000000,,2013-07-21 03:05:00,
2013-07-20 23:14:00,71.0,68.0,29.88,West,277,2.0,5.0,91,0.00,,,0.00,0.000000,,2013-07-21 03:14:00,
2013-07-20 23:25:00,71.0,68.0,29.88,West,274,0.0,3.0,91,0.00,,,0.00,0.000000,,2013-07-21 03:25:00,
2013-07-20 23:36:00,71.0,68.0,29.88,West,274,0.0,3.0,91,0.00,,,0.00,0.000000,,2013-07-21 03:36:00,
2013-07-20 23:56:00,71.0,69.0,29.88,West,264,0.0,3.0,92,0.00,,,0.00,0.000000,,2013-07-21 03:56:00,